Time;durP1;ratioP1;P1;durP2;ratioP2;P2;SDS_P1;SDS_P2;PMS_P1;PMS_P2;Temp;Humidity;BMP_temperature;BMP_pressure;BME280_temperature;BME280_humidity;BME280_pressure;Samples;Min_cycle;Max_cycle;Signal;HPM_P1;HPM_P2
2023/07/22 00:00:12;;;;;;;6.50;6.30;;;15.60;99.90;;;;;;5013814;28;20215;-64
2023/07/22 00:02:39;;;;;;;6.70;6.50;;;15.60;99.90;;;;;;5015005;28;20205;-64
2023/07/22 00:05:07;;;;;;;6.17;5.97;;;15.60;99.90;;;;;;5016020;28;20237;-65
2023/07/22 00:07:34;;;;;;;6.20;6.00;;;15.60;99.90;;;;;;5017809;28;20212;-65
2023/07/22 00:10:01;;;;;;;7.70;7.40;;;15.60;99.90;;;;;;5014681;28;20209;-64
2023/07/22 00:12:28;;;;;;;7.28;7.07;;;15.50;99.90;;;;;;5015509;28;20194;-65
2023/07/22 00:14:55;;;;;;;7.25;6.97;;;15.50;99.90;;;;;;5015043;28;20233;-65
2023/07/22 00:17:24;;;;;;;6.55;6.35;;;15.40;99.90;;;;;;5015010;28;20292;-64
2023/07/22 00:19:51;;;;;;;6.57;6.37;;;15.50;99.90;;;;;;5013234;28;20276;-64
2023/07/22 00:22:18;;;;;;;8.13;7.83;;;15.40;99.90;;;;;;5014129;28;20664;-67
2023/07/22 00:24:45;;;;;;;6.30;6.10;;;15.30;99.90;;;;;;5014207;28;20407;-65
2023/07/22 00:27:11;;;;;;;13.27;12.77;;;15.30;99.90;;;;;;5014604;28;20205;-65
2023/07/22 00:29:38;;;;;;;6.83;6.57;;;15.30;99.90;;;;;;5016205;28;20211;-67
2023/07/22 00:32:08;;;;;;;6.00;5.80;;;15.30;99.90;;;;;;5025738;28;20292;-65
2023/07/22 00:34:36;;;;;;;6.30;6.10;;;15.30;99.90;;;;;;5026604;28;20237;-64
2023/07/22 00:37:03;;;;;;;6.50;6.30;;;15.30;99.90;;;;;;5028169;28;20284;-65
2023/07/22 00:39:30;;;;;;;6.40;6.20;;;15.20;99.90;;;;;;5027351;28;20729;-66
2023/07/22 00:41:57;;;;;;;6.33;6.13;;;15.20;99.90;;;;;;5024359;28;20236;-65
2023/07/22 00:44:24;;;;;;;6.40;6.20;;;15.10;99.90;;;;;;5017242;28;20312;-64
2023/07/22 00:46:54;;;;;;;6.13;5.93;;;15.10;99.90;;;;;;5017627;28;20220;-64
2023/07/22 00:49:21;;;;;;;6.88;6.68;;;15.10;99.90;;;;;;5017242;28;20223;-65
2023/07/22 00:51:49;;;;;;;6.53;6.33;;;15.20;99.90;;;;;;5015131;28;20215;-65
2023/07/22 00:54:16;;;;;;;6.47;6.27;;;15.10;99.90;;;;;;5014826;28;20225;-65
2023/07/22 00:56:44;;;;;;;6.83;6.63;;;15.20;99.90;;;;;;5015088;28;20227;-65
2023/07/22 00:59:11;;;;;;;6.63;6.40;;;15.20;99.90;;;;;;5013620;28;20304;-65
2023/07/22 01:01:38;;;;;;;6.37;6.17;;;15.10;99.90;;;;;;5013554;28;20213;-65
2023/07/22 01:04:07;;;;;;;6.57;6.37;;;15.10;99.90;;;;;;5008692;28;20255;-65
2023/07/22 01:06:35;;;;;;;6.78;6.57;;;15.10;99.90;;;;;;5012664;28;20205;-65
2023/07/22 01:09:07;;;;;;;6.47;6.27;;;15.10;99.90;;;;;;5013272;28;20205;-65
2023/07/22 01:11:34;;;;;;;6.30;6.10;;;15.10;99.90;;;;;;5012800;28;20401;-66
2023/07/22 01:14:01;;;;;;;6.43;6.23;;;15.00;99.90;;;;;;5012594;28;20232;-65
2023/07/22 01:16:28;;;;;;;6.47;6.27;;;15.00;99.90;;;;;;5012448;28;20221;-65
2023/07/22 01:18:56;;;;;;;6.93;6.65;;;15.10;99.90;;;;;;5012503;28;20239;-64
2023/07/22 01:21:24;;;;;;;6.40;6.20;;;15.10;99.90;;;;;;5012142;28;20710;-66
2023/07/22 01:23:53;;;;;;;6.93;6.73;;;15.10;99.90;;;;;;5013510;28;20283;-65
2023/07/22 01:26:20;;;;;;;6.75;6.55;;;15.10;99.90;;;;;;5013461;28;20202;-64
2023/07/22 01:28:48;;;;;;;6.23;6.03;;;15.10;99.90;;;;;;5013222;28;20290;-64
2023/07/22 01:31:14;;;;;;;6.73;6.53;;;15.10;99.90;;;;;;5012290;28;20296;-64
2023/07/22 01:33:41;;;;;;;6.80;6.57;;;15.10;99.90;;;;;;5011303;28;20324;-64
2023/07/22 01:36:08;;;;;;;6.75;6.55;;;15.10;99.90;;;;;;5046781;22;20220;-66
2023/07/22 01:38:35;;;;;;;6.88;6.68;;;15.10;99.90;;;;;;5049094;28;20200;-66
2023/07/22 01:41:03;;;;;;;6.47;6.27;;;15.10;99.90;;;;;;5049290;28;20218;-66
2023/07/22 01:43:30;;;;;;;7.00;6.80;;;15.00;99.90;;;;;;5050891;28;20230;-66
2023/07/22 01:45:57;;;;;;;7.10;6.90;;;15.00;99.90;;;;;;5051538;28;20218;-65
2023/07/22 01:48:24;;;;;;;6.55;6.35;;;14.90;99.90;;;;;;5051982;28;20212;-66
2023/07/22 01:50:51;;;;;;;7.10;6.83;;;14.90;99.90;;;;;;5051148;28;20208;-66
2023/07/22 01:53:18;;;;;;;7.07;6.87;;;14.90;99.90;;;;;;5051991;28;20215;-67
2023/07/22 01:55:45;;;;;;;6.90;6.70;;;14.80;99.90;;;;;;5051578;28;20238;-65
2023/07/22 01:58:13;;;;;;;6.78;6.57;;;14.80;99.90;;;;;;5051611;28;20203;-65
2023/07/22 02:00:40;;;;;;;6.77;6.57;;;14.80;99.90;;;;;;5050887;28;20203;-68
2023/07/22 02:03:07;;;;;;;6.67;6.47;;;14.80;99.90;;;;;;5052311;28;20208;-66
2023/07/22 02:05:34;;;;;;;6.37;6.17;;;14.70;99.90;;;;;;5055091;28;20246;-65
2023/07/22 02:08:01;;;;;;;6.57;6.37;;;14.60;99.90;;;;;;5052530;28;20210;-66
2023/07/22 02:10:28;;;;;;;6.57;6.37;;;14.70;99.90;;;;;;5051425;28;20223;-66
2023/07/22 02:12:55;;;;;;;6.43;6.23;;;14.60;99.90;;;;;;5052493;28;20200;-66
2023/07/22 02:15:24;;;;;;;6.40;6.20;;;14.60;99.90;;;;;;5051909;28;20208;-67
2023/07/22 02:17:51;;;;;;;6.40;6.20;;;14.60;99.90;;;;;;5053307;28;20243;-67
2023/07/22 02:20:18;;;;;;;6.37;6.17;;;14.60;99.90;;;;;;5052170;28;20220;-65
2023/07/22 02:22:44;;;;;;;6.57;6.37;;;14.60;99.90;;;;;;5052423;28;20229;-68
2023/07/22 02:25:11;;;;;;;7.33;7.13;;;14.60;99.90;;;;;;5051918;28;20212;-66
2023/07/22 02:27:40;;;;;;;6.23;6.03;;;14.60;99.90;;;;;;5052081;28;20203;-66
2023/07/22 02:30:10;;;;;;;6.90;6.70;;;14.50;99.90;;;;;;5052575;28;20226;-65
2023/07/22 02:32:39;;;;;;;6.03;5.83;;;14.40;99.90;;;;;;5059286;28;20670;-67
2023/07/22 02:35:07;;;;;;;5.97;5.77;;;14.30;99.90;;;;;;5059953;28;20218;-66
2023/07/22 02:37:34;;;;;;;7.10;6.87;;;14.40;99.90;;;;;;5057040;28;20231;-65
2023/07/22 02:40:07;;;;;;;5.50;5.30;;;14.40;99.90;;;;;;5057358;28;20590;-66
2023/07/22 02:42:34;;;;;;;6.27;6.07;;;14.40;99.90;;;;;;5061563;28;20196;-66
2023/07/22 02:45:01;;;;;;;6.30;6.10;;;14.40;99.90;;;;;;5057443;28;20686;-68
2023/07/22 02:47:28;;;;;;;6.03;5.83;;;14.50;99.90;;;;;;5051890;28;20753;-66
2023/07/22 02:49:56;;;;;;;6.50;6.20;;;14.50;99.90;;;;;;5050571;28;20204;-67
2023/07/22 02:52:23;;;;;;;6.35;6.15;;;14.50;99.90;;;;;;5052012;28;20302;-67
2023/07/22 02:55:06;;;;;;;6.37;6.17;;;14.50;99.90;;;;;;5051630;28;20200;-66
2023/07/22 02:57:33;;;;;;;5.97;5.77;;;14.50;99.90;;;;;;5051811;28;20232;-65
2023/07/22 03:00:00;;;;;;;6.50;6.30;;;14.50;99.90;;;;;;5050740;28;20203;-67
2023/07/22 03:02:27;;;;;;;10.07;9.68;;;14.50;99.90;;;;;;5051391;28;20207;-66
2023/07/22 03:04:54;;;;;;;6.87;6.67;;;14.50;99.90;;;;;;5055253;28;20204;-66
2023/07/22 03:07:22;;;;;;;6.22;6.03;;;14.50;99.90;;;;;;5060651;28;20223;-68
2023/07/22 03:09:49;;;;;;;5.75;5.55;;;14.50;99.90;;;;;;5051943;28;20208;-68
2023/07/22 03:12:16;;;;;;;6.20;6.00;;;14.40;99.90;;;;;;5053799;28;20575;-65
2023/07/22 03:14:42;;;;;;;5.97;5.77;;;14.40;99.90;;;;;;5059242;28;20208;-66
2023/07/22 03:17:09;;;;;;;5.72;5.53;;;14.40;99.90;;;;;;5054875;28;20224;-67
2023/07/22 03:19:36;;;;;;;5.80;5.60;;;14.40;99.90;;;;;;5050978;28;20580;-66
2023/07/22 03:22:03;;;;;;;5.95;5.75;;;14.40;99.90;;;;;;5051720;28;20678;-63
2023/07/22 03:24:31;;;;;;;6.10;5.90;;;14.50;99.90;;;;;;5052402;28;20214;-67
2023/07/22 03:26:58;;;;;;;6.37;6.17;;;14.50;99.90;;;;;;5051149;28;20293;-67
2023/07/22 03:29:25;;;;;;;5.97;5.77;;;14.50;99.90;;;;;;5049682;28;20214;-67
2023/07/22 03:31:52;;;;;;;5.70;5.50;;;14.50;99.90;;;;;;5050089;28;20212;-66
2023/07/22 03:34:19;;;;;;;6.13;5.93;;;14.50;99.90;;;;;;5050636;28;20208;-66
2023/07/22 03:36:46;;;;;;;5.95;5.75;;;14.50;99.90;;;;;;5049772;28;20231;-65
2023/07/22 03:39:13;;;;;;;6.07;5.88;;;14.50;99.90;;;;;;5049927;28;20250;-65
2023/07/22 03:41:41;;;;;;;6.35;6.15;;;14.50;99.90;;;;;;5051581;28;20204;-66
2023/07/22 03:44:08;;;;;;;6.17;5.97;;;14.50;99.90;;;;;;5064192;28;20311;-66
2023/07/22 03:46:35;;;;;;;6.13;5.93;;;14.50;99.90;;;;;;5062094;28;20255;-67
2023/07/22 03:49:02;;;;;;;6.20;6.00;;;14.50;99.90;;;;;;5050058;28;20233;-63
2023/07/22 03:51:28;;;;;;;6.03;5.82;;;14.50;99.90;;;;;;5049729;28;20223;-68
2023/07/22 03:53:55;;;;;;;6.07;5.87;;;14.50;99.90;;;;;;5049675;28;20214;-64
2023/07/22 03:56:23;;;;;;;6.27;6.07;;;14.50;99.90;;;;;;5049781;28;20223;-67
2023/07/22 03:58:52;;;;;;;6.38;6.18;;;14.50;99.90;;;;;;5049586;28;20234;-66
2023/07/22 04:01:19;;;;;;;6.65;6.45;;;14.50;99.90;;;;;;5048590;28;20294;-67
2023/07/22 04:03:46;;;;;;;5.97;5.77;;;14.50;99.90;;;;;;5048670;28;20283;-66
2023/07/22 04:06:13;;;;;;;6.03;5.83;;;14.50;99.90;;;;;;5049870;28;20706;-65
2023/07/22 04:08:40;;;;;;;5.97;5.77;;;14.40;99.90;;;;;;5049889;28;20199;-65
2023/07/22 04:11:06;;;;;;;6.30;6.10;;;14.50;99.90;;;;;;5048825;28;20682;-67
2023/07/22 04:13:33;;;;;;;6.07;5.87;;;14.40;99.90;;;;;;5049651;28;20295;-64
2023/07/22 04:16:01;;;;;;;6.40;6.20;;;14.50;99.90;;;;;;5051450;28;20773;-67
2023/07/22 04:18:33;;;;;;;6.17;5.97;;;14.50;99.90;;;;;;5051348;28;21058;-66
2023/07/22 04:20:59;;;;;;;6.37;6.17;;;14.40;99.90;;;;;;5050480;28;20374;-67
2023/07/22 04:23:27;;;;;;;6.57;6.37;;;14.40;99.90;;;;;;5050767;28;20200;-67
2023/07/22 04:25:54;;;;;;;6.07;5.87;;;14.40;99.90;;;;;;5051081;28;20228;-67
2023/07/22 04:28:21;;;;;;;6.20;6.00;;;14.40;99.90;;;;;;5051030;28;20709;-66
2023/07/22 04:30:57;;;;;;;6.50;6.20;;;14.40;99.90;;;;;;5049805;28;20234;-67
2023/07/22 04:33:26;;;;;;;6.13;5.93;;;14.40;99.90;;;;;;5050947;28;20210;-66
2023/07/22 04:35:55;;;;;;;6.07;5.87;;;14.40;99.90;;;;;;5050876;28;20295;-66
2023/07/22 04:38:22;;;;;;;6.10;5.90;;;14.40;99.90;;;;;;5052013;28;20678;-68
2023/07/22 04:40:49;;;;;;;5.90;5.70;;;14.40;99.90;;;;;;5053524;28;20206;-66
2023/07/22 04:43:15;;;;;;;6.00;5.80;;;14.40;99.90;;;;;;5054277;28;20222;-68
2023/07/22 04:45:47;;;;;;;6.03;5.83;;;14.40;99.90;;;;;;5054451;28;20748;-65
2023/07/22 04:48:15;;;;;;;6.25;6.05;;;14.50;99.90;;;;;;5056831;28;20608;-67
2023/07/22 04:50:44;;;;;;;6.07;5.87;;;14.50;99.90;;;;;;5054003;28;20240;-65
2023/07/22 04:53:12;;;;;;;6.27;6.07;;;14.60;99.90;;;;;;5058814;28;20271;-67
2023/07/22 04:55:39;;;;;;;6.35;6.15;;;14.60;99.90;;;;;;5054548;28;20599;-66
2023/07/22 04:58:07;;;;;;;6.80;6.60;;;14.70;99.90;;;;;;5053680;28;20238;-67
2023/07/22 05:00:33;;;;;;;6.80;6.60;;;14.70;99.90;;;;;;5053105;28;20317;-66
2023/07/22 05:03:01;;;;;;;6.77;6.53;;;14.80;99.90;;;;;;5053737;28;20210;-66
2023/07/22 05:05:28;;;;;;;6.83;6.63;;;14.80;99.90;;;;;;5053631;28;20230;-65
2023/07/22 05:07:56;;;;;;;6.90;6.70;;;14.90;99.90;;;;;;5053666;28;20215;-66
2023/07/22 05:10:23;;;;;;;7.20;6.80;;;15.00;99.90;;;;;;5052765;28;20239;-66
2023/07/22 05:12:50;;;;;;;6.50;6.30;;;15.00;99.90;;;;;;5054301;28;20302;-65
2023/07/22 05:15:17;;;;;;;174.15;43.28;;;15.10;99.90;;;;;;5058479;28;20477;-63
2023/07/22 05:17:44;;;;;;;6.73;6.43;;;15.30;99.90;;;;;;5055682;28;20230;-67
2023/07/22 05:20:12;;;;;;;6.50;6.30;;;15.50;99.90;;;;;;5051982;28;20696;-67
2023/07/22 05:22:40;;;;;;;6.53;6.33;;;15.50;99.90;;;;;;5055103;28;20204;-66
2023/07/22 05:25:09;;;;;;;6.40;6.20;;;15.60;99.90;;;;;;5054095;28;20295;-63
2023/07/22 05:27:36;;;;;;;6.13;5.93;;;15.80;99.90;;;;;;5053298;28;20670;-66
2023/07/22 05:30:03;;;;;;;6.10;5.90;;;15.90;99.90;;;;;;5051039;28;20212;-67
2023/07/22 05:32:30;;;;;;;5.70;5.50;;;16.10;99.90;;;;;;5052917;28;20210;-66
2023/07/22 05:34:57;;;;;;;6.85;6.65;;;16.30;99.90;;;;;;5052706;28;20297;-64
2023/07/22 05:37:24;;;;;;;6.23;6.03;;;16.50;99.90;;;;;;5052253;28;20255;-67
2023/07/22 05:39:51;;;;;;;6.28;6.07;;;16.70;99.90;;;;;;5052144;28;20204;-66
2023/07/22 05:42:19;;;;;;;6.63;6.43;;;16.90;99.90;;;;;;5052445;28;20204;-66
2023/07/22 05:44:47;;;;;;;6.73;6.53;;;17.10;99.90;;;;;;5061956;28;20294;-68
2023/07/22 05:47:14;;;;;;;6.70;6.50;;;17.20;99.90;;;;;;5061919;28;20335;-66
2023/07/22 05:49:41;;;;;;;6.47;6.27;;;17.40;99.90;;;;;;5051295;28;20204;-65
2023/07/22 05:52:08;;;;;;;6.70;6.50;;;17.60;99.90;;;;;;5052496;28;20212;-66
2023/07/22 05:54:35;;;;;;;6.40;6.20;;;17.50;99.90;;;;;;5052102;28;20204;-66
2023/07/22 05:57:03;;;;;;;6.17;5.97;;;17.50;99.90;;;;;;5053421;28;20327;-65
2023/07/22 05:59:31;;;;;;;6.40;6.20;;;17.60;99.90;;;;;;5049893;28;20303;-65
2023/07/22 06:01:58;;;;;;;6.10;5.90;;;17.60;99.90;;;;;;5052598;28;20298;-65
2023/07/22 06:04:25;;;;;;;6.23;6.03;;;17.70;99.90;;;;;;5052902;28;20204;-67
2023/07/22 06:06:52;;;;;;;6.20;6.00;;;17.90;99.90;;;;;;5053447;28;20661;-67
2023/07/22 06:09:20;;;;;;;6.00;5.80;;;17.90;99.90;;;;;;5051269;28;20204;-67
2023/07/22 06:11:46;;;;;;;6.30;6.10;;;17.90;99.90;;;;;;5051991;28;20218;-67
2023/07/22 06:14:13;;;;;;;6.17;5.97;;;18.00;99.90;;;;;;5051881;28;20291;-68
2023/07/22 06:16:41;;;;;;;6.00;5.80;;;18.20;99.90;;;;;;5051361;28;20223;-66
2023/07/22 06:19:08;;;;;;;6.30;6.10;;;18.40;99.90;;;;;;5050021;28;20224;-66
2023/07/22 06:21:35;;;;;;;6.50;6.20;;;18.70;99.90;;;;;;5050223;28;20573;-67
2023/07/22 06:24:02;;;;;;;6.43;6.23;;;18.90;99.90;;;;;;5051834;28;20206;-64
2023/07/22 06:26:29;;;;;;;6.07;5.88;;;19.10;99.90;;;;;;5051754;28;20397;-66
2023/07/22 06:28:55;;;;;;;6.65;6.45;;;19.30;99.90;;;;;;5051787;28;20207;-67
2023/07/22 06:31:22;;;;;;;6.97;6.78;;;19.60;99.90;;;;;;5053726;28;20204;-64
2023/07/22 06:33:50;;;;;;;7.00;6.80;;;19.80;99.90;;;;;;5066805;28;20213;-66
2023/07/22 06:36:17;;;;;;;7.33;7.13;;;20.00;99.90;;;;;;5053474;28;20285;-66
2023/07/22 06:38:44;;;;;;;7.03;6.83;;;20.10;99.90;;;;;;5052320;28;20251;-68
2023/07/22 06:41:11;;;;;;;7.00;6.80;;;20.30;99.90;;;;;;5053753;28;20208;-67
2023/07/22 06:43:38;;;;;;;7.00;6.80;;;20.50;99.90;;;;;;5053870;28;20199;-67
2023/07/22 06:46:05;;;;;;;7.35;7.15;;;20.50;99.90;;;;;;5053004;28;20817;-66
2023/07/22 06:48:32;;;;;;;7.82;7.57;;;20.60;99.90;;;;;;5053518;28;20206;-66
2023/07/22 06:51:00;;;;;;;7.23;7.03;;;20.50;99.90;;;;;;5051393;28;20212;-66
2023/07/22 06:53:27;;;;;;;8.20;7.90;;;20.60;99.90;;;;;;5051024;28;20210;-65
2023/07/22 06:55:54;;;;;;;7.70;7.40;;;20.60;99.90;;;;;;5051276;28;20746;-68
2023/07/22 06:58:22;;;;;;;7.67;7.37;;;20.70;99.90;;;;;;5050291;28;20230;-64
2023/07/22 07:00:49;;;;;;;8.38;8.07;;;20.80;99.90;;;;;;5053177;28;20506;-66
2023/07/22 07:03:16;;;;;;;7.80;7.50;;;21.00;99.90;;;;;;5052357;28;20230;-67
2023/07/22 07:05:43;;;;;;;8.60;8.30;;;21.20;99.90;;;;;;5058418;28;20603;-67
2023/07/22 07:08:11;;;;;;;8.20;7.90;;;21.20;99.90;;;;;;5050873;28;20283;-65
2023/07/22 07:10:39;;;;;;;7.80;7.53;;;21.20;99.90;;;;;;5050058;28;20200;-67
2023/07/22 07:13:06;;;;;;;7.35;7.15;;;21.30;99.90;;;;;;5050910;28;20208;-66
2023/07/22 07:15:33;;;;;;;7.80;7.50;;;21.30;99.90;;;;;;5051290;28;20318;-66
2023/07/22 07:18:00;;;;;;;7.30;7.10;;;21.30;99.90;;;;;;5051222;28;20219;-65
2023/07/22 07:20:26;;;;;;;7.65;7.35;;;21.30;99.90;;;;;;5050383;28;20204;-65
2023/07/22 07:22:53;;;;;;;7.65;7.45;;;21.30;99.90;;;;;;5056880;28;20415;-67
2023/07/22 07:25:21;;;;;;;7.45;7.25;;;21.30;99.90;;;;;;5055880;28;20291;-67
2023/07/22 07:27:48;;;;;;;7.00;6.80;;;21.40;99.90;;;;;;5051339;28;20670;-67
2023/07/22 07:30:15;;;;;;;7.95;7.65;;;21.40;99.90;;;;;;5050515;28;20231;-67
2023/07/22 07:32:42;;;;;;;7.43;7.23;;;21.40;99.90;;;;;;5051074;28;20293;-66
2023/07/22 07:35:10;;;;;;;7.22;7.03;;;21.50;99.90;;;;;;5051367;28;20210;-66
2023/07/22 07:37:37;;;;;;;7.30;7.05;;;21.60;99.90;;;;;;5059183;22;20236;-63
2023/07/22 07:40:04;;;;;;;7.20;7.00;;;21.70;99.90;;;;;;5042608;28;20208;-64
2023/07/22 07:42:32;;;;;;;7.32;7.13;;;21.70;99.90;;;;;;5043722;28;20206;-66
2023/07/22 07:44:59;;;;;;;7.90;7.60;;;21.70;99.90;;;;;;5042521;28;20244;-63
2023/07/22 07:47:26;;;;;;;8.07;7.68;;;21.80;99.90;;;;;;5027504;28;20229;-63
2023/07/22 07:49:53;;;;;;;8.32;8.02;;;22.00;99.90;;;;;;5028043;28;20614;-64
2023/07/22 07:52:20;;;;;;;8.55;8.15;;;22.30;99.90;;;;;;5029357;28;20207;-64
2023/07/22 07:54:47;;;;;;;7.97;7.68;;;22.40;99.90;;;;;;5027552;28;20207;-63
2023/07/22 07:57:13;;;;;;;8.20;7.90;;;22.40;99.90;;;;;;5028456;28;20275;-64
2023/07/22 07:59:42;;;;;;;8.32;8.02;;;22.40;99.90;;;;;;5025535;28;20221;-65
2023/07/22 08:02:10;;;;;;;7.73;7.43;;;22.60;99.90;;;;;;5027229;28;20512;-63
2023/07/22 08:04:37;;;;;;;8.63;8.32;;;22.80;99.90;;;;;;5028475;28;20211;-63
2023/07/22 08:07:07;;;;;;;8.77;8.48;;;23.10;99.90;;;;;;5028164;28;20725;-63
2023/07/22 08:09:34;;;;;;;8.77;8.48;;;23.30;99.90;;;;;;5010152;28;20288;-63
2023/07/22 08:12:03;;;;;;;8.48;8.18;;;23.30;99.90;;;;;;5028120;28;20740;-63
2023/07/22 08:14:30;;;;;;;9.00;8.70;;;23.20;99.90;;;;;;5033703;28;20197;-64
2023/07/22 08:16:58;;;;;;;8.95;8.65;;;23.30;99.90;;;;;;5027109;28;20229;-64
2023/07/22 08:19:25;;;;;;;8.23;7.93;;;23.70;99.90;;;;;;5033059;28;20228;-63
2023/07/22 08:21:52;;;;;;;8.50;8.20;;;23.80;99.90;;;;;;5033514;28;20698;-64
2023/07/22 08:24:19;;;;;;;8.40;8.10;;;23.70;99.90;;;;;;5024785;28;20214;-64
2023/07/22 08:26:46;;;;;;;7.90;7.60;;;23.60;99.90;;;;;;5030799;28;20228;-64
2023/07/22 08:29:12;;;;;;;8.18;7.88;;;23.60;99.90;;;;;;5030212;28;20196;-65
2023/07/22 08:31:39;;;;;;;8.13;7.82;;;23.50;99.90;;;;;;5033696;28;20592;-64
2023/07/22 08:34:07;;;;;;;8.70;8.40;;;23.50;99.90;;;;;;5033173;28;20208;-64
2023/07/22 08:36:35;;;;;;;8.30;8.00;;;23.50;99.90;;;;;;5012514;28;20235;-64
2023/07/22 08:39:02;;;;;;;8.07;7.78;;;23.80;99.90;;;;;;5011933;28;20228;-64
2023/07/22 08:41:31;;;;;;;8.70;8.40;;;23.70;99.90;;;;;;5012679;28;20209;-62
2023/07/22 08:44:01;;;;;;;8.18;7.88;;;23.80;99.90;;;;;;5020540;28;20216;-64
2023/07/22 08:46:30;;;;;;;8.40;8.10;;;23.90;99.90;;;;;;5029690;28;20323;-62
2023/07/22 08:48:59;;;;;;;8.00;7.70;;;23.80;99.90;;;;;;5029188;28;20216;-63
2023/07/22 08:51:29;;;;;;;7.15;6.95;;;23.90;99.90;;;;;;5031566;28;20209;-64
2023/07/22 08:53:57;;;;;;;7.45;7.15;;;24.10;99.90;;;;;;5031719;28;20213;-63
2023/07/22 08:56:25;;;;;;;7.60;7.30;;;24.20;99.90;;;;;;5030294;28;20290;-63
2023/07/22 08:58:53;;;;;;;7.45;7.25;;;24.40;99.90;;;;;;5034666;28;20638;-65
2023/07/22 09:01:21;;;;;;;7.47;7.28;;;24.70;99.90;;;;;;5031077;28;20277;-65
2023/07/22 09:03:51;;;;;;;8.20;7.90;;;24.80;99.90;;;;;;5033065;28;20559;-64
2023/07/22 09:06:18;;;;;;;8.23;7.93;;;25.00;99.90;;;;;;5032727;28;20216;-66
2023/07/22 09:08:47;;;;;;;8.18;7.88;;;25.10;99.90;;;;;;5034668;28;20226;-64
2023/07/22 09:11:14;;;;;;;8.68;8.38;;;25.10;99.90;;;;;;5035800;28;20209;-63
2023/07/22 09:13:45;;;;;;;7.95;7.65;;;25.20;99.90;;;;;;5037608;28;20605;-66
2023/07/22 09:16:13;;;;;;;7.75;7.53;;;25.30;99.90;;;;;;5035892;28;20231;-65
2023/07/22 09:18:40;;;;;;;7.93;7.63;;;25.50;99.90;;;;;;5035671;28;20225;-65
2023/07/22 09:21:08;;;;;;;7.32;7.13;;;25.70;99.90;;;;;;5035144;28;20231;-65
2023/07/22 09:23:35;;;;;;;8.40;8.10;;;25.50;99.90;;;;;;5034434;28;20216;-65
2023/07/22 09:26:14;;;;;;;7.38;7.07;;;25.50;99.90;;;;;;5035983;28;20230;-66
2023/07/22 09:28:52;;;;;;;8.27;7.97;;;25.60;99.90;;;;;;5038137;28;20246;-64
2023/07/22 09:31:19;;;;;;;8.68;8.38;;;25.40;99.90;;;;;;5032669;28;20218;-65
2023/07/22 09:33:46;;;;;;;8.10;7.82;;;25.30;99.90;;;;;;5033390;28;20216;-64
2023/07/22 09:36:13;;;;;;;7.75;7.45;;;25.50;99.90;;;;;;5032620;28;20229;-65
2023/07/22 09:38:40;;;;;;;7.10;6.90;;;25.60;99.90;;;;;;5032466;28;20319;-66
2023/07/22 09:41:08;;;;;;;7.93;7.63;;;25.40;99.90;;;;;;5031901;28;20212;-65
2023/07/22 09:43:40;;;;;;;7.00;6.80;;;25.30;99.90;;;;;;5032143;28;20270;-65
2023/07/22 09:46:11;;;;;;;7.75;7.45;;;25.60;99.90;;;;;;5032433;28;20239;-66
2023/07/22 09:48:42;;;;;;;7.30;7.10;;;25.50;99.90;;;;;;5031863;28;20529;-64
2023/07/22 09:51:14;;;;;;;7.00;6.80;;;25.70;99.90;;;;;;5031027;28;20643;-64
2023/07/22 09:53:45;;;;;;;7.18;6.97;;;25.90;99.90;;;;;;5032226;28;20204;-64
2023/07/22 09:56:12;;;;;;;7.20;7.00;;;26.10;99.90;;;;;;5032610;28;20228;-64
2023/07/22 09:58:41;;;;;;;7.20;7.00;;;26.30;99.90;;;;;;5032273;28;20224;-67
2023/07/22 10:01:09;;;;;;;7.35;7.05;;;26.50;99.90;;;;;;5031222;28;20853;-66
2023/07/22 10:03:39;;;;;;;7.47;7.18;;;26.60;99.90;;;;;;5032012;28;20658;-66
2023/07/22 10:06:07;;;;;;;7.95;7.65;;;26.80;99.90;;;;;;5031563;28;20228;-65
2023/07/22 10:08:36;;;;;;;7.70;7.50;;;26.90;99.90;;;;;;5031223;28;20296;-64
2023/07/22 10:11:06;;;;;;;7.85;7.55;;;26.90;99.90;;;;;;5029892;28;20212;-64
2023/07/22 10:13:33;;;;;;;7.80;7.50;;;26.90;99.90;;;;;;5030488;28;20267;-65
2023/07/22 10:16:02;;;;;;;7.78;7.47;;;26.60;99.90;;;;;;5030596;28;20200;-64
2023/07/22 10:18:31;;;;;;;7.60;7.40;;;26.80;99.90;;;;;;5029729;28;20223;-64
2023/07/22 10:20:59;;;;;;;8.00;7.70;;;27.10;99.90;;;;;;5029634;28;20212;-64
2023/07/22 10:23:27;;;;;;;7.65;7.45;;;27.40;99.90;;;;;;5030711;28;20205;-66
2023/07/22 10:25:55;;;;;;;8.38;8.07;;;27.50;99.90;;;;;;5030033;28;20205;-64
2023/07/22 10:28:23;;;;;;;8.73;8.43;;;27.70;99.90;;;;;;5030633;28;20629;-65
2023/07/22 10:30:50;;;;;;;8.27;7.97;;;27.80;99.90;;;;;;5029736;28;20272;-65
2023/07/22 10:33:18;;;;;;;9.52;9.23;;;27.90;99.90;;;;;;5030136;28;20205;-65
2023/07/22 10:36:04;;;;;;;15.88;15.27;;;28.20;99.90;;;;;;5030148;28;20242;-65
2023/07/22 10:38:31;;;;;;;8.93;8.52;;;28.30;99.90;;;;;;5030796;28;20235;-64
2023/07/22 10:40:59;;;;;;;11.07;10.68;;;28.30;99.90;;;;;;5029607;28;20776;-67
2023/07/22 10:43:28;;;;;;;10.07;9.75;;;27.90;99.90;;;;;;5035341;28;20209;-65
2023/07/22 10:45:56;;;;;;;8.07;7.78;;;27.50;99.90;;;;;;5040818;28;20209;-63
2023/07/22 10:48:27;;;;;;;8.88;8.57;;;27.40;99.90;;;;;;5040473;28;20276;-67
2023/07/22 10:50:56;;;;;;;8.00;7.70;;;27.20;99.90;;;;;;5036185;28;20209;-66
2023/07/22 10:53:31;;;;;;;7.68;7.47;;;27.10;99.90;;;;;;5035702;28;20204;-65
2023/07/22 10:56:16;;;;;;;8.80;8.50;;;27.00;99.90;;;;;;5031224;28;20208;-65
2023/07/22 10:59:00;;;;;;;10.13;9.73;;;27.20;99.90;;;;;;5031054;28;20221;-65
2023/07/22 11:01:35;;;;;;;8.23;7.93;;;27.40;99.90;;;;;;5030683;28;20235;-65
2023/07/22 11:04:12;;;;;;;8.20;7.90;;;27.30;99.90;;;;;;5030935;28;20212;-65
2023/07/22 11:06:40;;;;;;;7.63;7.43;;;27.10;99.90;;;;;;5028890;28;20700;-65
2023/07/22 11:09:07;;;;;;;8.38;8.07;;;26.80;99.90;;;;;;5030698;28;20209;-64
2023/07/22 11:11:38;;;;;;;7.32;7.13;;;26.70;99.90;;;;;;5030877;28;20507;-66
2023/07/22 11:14:16;;;;;;;7.35;7.15;;;26.50;99.90;;;;;;5031412;28;20583;-66
2023/07/22 11:16:44;;;;;;;8.30;8.00;;;26.40;99.90;;;;;;5030827;28;20233;-65
2023/07/22 11:19:13;;;;;;;9.20;8.90;;;26.50;99.90;;;;;;5031305;28;20324;-63
2023/07/22 11:21:40;;;;;;;8.00;7.70;;;26.90;99.90;;;;;;5040175;28;20678;-63
2023/07/22 11:24:08;;;;;;;8.25;7.95;;;27.10;99.90;;;;;;5038210;28;20295;-63
2023/07/22 11:26:35;;;;;;;8.20;7.90;;;27.30;99.90;;;;;;5041004;28;20247;-65
2023/07/22 11:29:02;;;;;;;8.93;8.63;;;27.60;99.90;;;;;;5038023;28;20201;-64
2023/07/22 11:31:32;;;;;;;8.75;8.45;;;27.70;99.90;;;;;;5031923;28;20213;-64
2023/07/22 11:34:00;;;;;;;10.48;10.10;;;27.80;99.90;;;;;;5031301;28;20212;-65
2023/07/22 11:36:28;;;;;;;8.25;7.95;;;27.80;99.90;;;;;;5031575;28;20319;-65
2023/07/22 11:39:01;;;;;;;8.10;7.80;;;27.80;99.90;;;;;;5031661;28;20228;-65
2023/07/22 11:41:28;;;;;;;7.32;7.13;;;27.60;99.90;;;;;;5030237;28;20208;-64
2023/07/22 11:43:57;;;;;;;7.97;7.68;;;27.50;99.90;;;;;;5030677;28;20209;-65
2023/07/22 11:46:23;;;;;;;7.47;7.28;;;27.30;99.90;;;;;;5030662;28;20580;-65
2023/07/22 11:48:52;;;;;;;7.60;7.40;;;27.40;99.90;;;;;;5035023;28;20208;-65
2023/07/22 11:51:20;;;;;;;7.88;7.57;;;27.30;99.90;;;;;;5033781;28;20205;-65
2023/07/22 11:53:50;;;;;;;8.15;7.85;;;27.40;99.90;;;;;;5034996;28;20208;-65
2023/07/22 11:56:22;;;;;;;8.52;8.23;;;27.50;99.90;;;;;;5035091;28;20225;-66
2023/07/22 11:58:52;;;;;;;8.20;7.90;;;27.80;99.90;;;;;;5034127;28;20781;-66
2023/07/22 12:01:19;;;;;;;8.48;8.18;;;27.90;99.90;;;;;;5034059;28;20662;-66
2023/07/22 12:03:46;;;;;;;7.93;7.63;;;27.90;99.90;;;;;;5034320;28;20211;-65
2023/07/22 12:06:14;;;;;;;8.10;7.80;;;27.60;99.90;;;;;;5034490;28;20583;-65
2023/07/22 12:08:45;;;;;;;7.85;7.60;;;27.80;99.90;;;;;;5036252;28;20204;-65
2023/07/22 12:11:19;;;;;;;8.30;8.00;;;28.00;99.90;;;;;;5035017;28;20208;-64
2023/07/22 12:13:50;;;;;;;7.78;7.50;;;28.20;99.90;;;;;;5035340;28;20211;-66
2023/07/22 12:16:23;;;;;;;8.15;7.85;;;28.20;99.90;;;;;;5034366;28;20736;-65
2023/07/22 12:18:50;;;;;;;8.57;8.18;;;28.50;99.90;;;;;;5031659;28;20216;-66
2023/07/22 12:21:17;;;;;;;8.82;8.52;;;28.70;99.90;;;;;;5031776;28;20643;-66
2023/07/22 12:23:44;;;;;;;14.15;13.65;;;28.80;99.90;;;;;;5032367;28;20204;-66
2023/07/22 12:26:11;;;;;;;11.15;10.75;;;28.70;99.90;;;;;;5032589;28;20228;-65
2023/07/22 12:28:39;;;;;;;9.75;9.45;;;28.40;99.90;;;;;;5032637;28;20212;-66
2023/07/22 12:31:06;;;;;;;13.38;12.88;;;28.40;99.90;;;;;;5032394;28;20207;-66
2023/07/22 12:33:33;;;;;;;9.48;9.18;;;28.60;99.90;;;;;;5032832;28;20204;-65
2023/07/22 12:36:00;;;;;;;11.07;10.68;;;28.50;99.90;;;;;;5032408;28;20208;-65
2023/07/22 12:38:27;;;;;;;10.10;9.70;;;28.50;99.90;;;;;;5032610;28;20213;-66
2023/07/22 12:40:53;;;;;;;12.10;11.70;;;28.40;99.90;;;;;;5031113;28;20989;-66
2023/07/22 12:43:20;;;;;;;11.05;10.65;;;28.60;99.90;;;;;;5031896;28;20258;-68
2023/07/22 12:45:49;;;;;;;17.23;16.63;;;28.70;99.90;;;;;;5031558;28;20227;-65
2023/07/22 12:48:17;;;;;;;12.40;12.00;;;28.70;99.90;;;;;;5030743;28;20646;-67